Decoded Metar for K1S5 ( in ) (IATA:) | Meteo·Mobile Aviation Weather
aviador You're here:

K1S5 Decoded Metar

in
Report Time2020-02-25 21:35:00
UTC Time2020-02-25 21:54:45
Flight Rules vfr VFR
Wind070° at 04 kt
Visibility9999 m
Phenomena:N/A
Clouds:N/A
Expected CloudBase > 5,600 ft AGL from Temp-Dew spread
CeilingNone
Temp11°C
Dew Point-3°C (38% RH)
AAT7.2°C
QNH1034 hPa
Raw Report
K1S5 252135Z AUTO 07004KT 10SM CLR 11/M03 A3053 RMK AO2
T01111027=

Extra information for K1S5:More info

Social comments